Time;durP1;ratioP1;P1;durP2;ratioP2;P2;SDS_P1;SDS_P2;PMS_P1;PMS_P2;Temp;Humidity;BMP_temperature;BMP_pressure;BME280_temperature;BME280_humidity;BME280_pressure;Samples;Min_cycle;Max_cycle;Signal;HPM_P1;HPM_P2
2022/11/05 00:56:59;;;;;;;22.33;7.40;;;17.10;99.90;;;;;;5612684;22;20049;-93
2022/11/05 00:59:31;;;;;;;29.80;7.53;;;17.10;99.90;;;;;;5043123;28;20029;-93
2022/11/05 01:01:59;;;;;;;35.22;7.78;;;17.20;99.90;;;;;;5052779;28;20029;-93
2022/11/05 01:06:11;;;;;;;;;;;;;;;;;;;;;
2022/11/05 07:24:36;;;;;;;;;;;;;;;;;;;;;
2022/11/05 07:28:19;;;;;;;24.80;7.80;;;16.00;99.90;;;;;;4963229;29;20100;-93
2022/11/05 07:59:14;;;;;;;22.17;9.55;;;15.90;99.90;;;;;;5063259;22;20045;-94
2022/11/05 08:02:10;;;;;;;19.05;9.55;;;15.90;99.90;;;;;;5021438;28;20029;-94
2022/11/05 08:04:53;;;;;;;22.38;10.45;;;15.90;99.90;;;;;;5054843;28;20063;-93
2022/11/05 08:07:20;;;;;;;26.90;10.40;;;15.90;99.90;;;;;;5036249;28;20045;-93
2022/11/05 08:09:49;;;;;;;25.80;12.10;;;15.90;99.90;;;;;;5016217;28;20213;-94
2022/11/05 08:12:18;;;;;;;28.73;12.52;;;15.90;99.90;;;;;;5028722;28;20045;-94
2022/11/05 08:14:44;;;;;;;27.38;13.45;;;15.80;99.90;;;;;;5029250;28;20051;-94
2022/11/05 08:17:50;;;;;;;28.63;13.23;;;15.80;99.90;;;;;;5034327;28;20060;-94
2022/11/05 08:26:04;;;;;;;27.95;10.63;;;15.80;99.90;;;;;;5115816;22;20037;-93
2022/11/05 08:28:42;;;;;;;24.48;10.15;;;15.70;99.90;;;;;;5073484;23;20105;-93
2022/11/05 08:39:37;;;;;;;20.48;8.45;;;15.80;99.90;;;;;;5998177;23;20054;-94
2022/11/05 08:42:06;;;;;;;16.98;7.97;;;15.90;99.90;;;;;;5042109;28;20044;-92
2022/11/05 08:44:33;;;;;;;22.75;9.57;;;15.90;99.90;;;;;;5085811;23;20049;-93
2022/11/05 08:47:04;;;;;;;20.00;8.57;;;16.00;99.90;;;;;;5023572;28;20033;-94
2022/11/05 08:49:31;;;;;;;25.42;7.75;;;16.10;99.90;;;;;;5041115;28;20025;-94
2022/11/05 08:51:58;;;;;;;21.38;7.93;;;16.00;99.90;;;;;;5027057;28;20021;-93
2022/11/05 08:54:28;;;;;;;23.77;7.20;;;16.10;99.90;;;;;;5026572;28;20033;-93
2022/11/05 08:56:55;;;;;;;17.10;6.38;;;16.10;99.90;;;;;;5034498;28;20018;-94
2022/11/05 08:59:22;;;;;;;22.50;7.45;;;16.10;99.90;;;;;;5040971;28;20037;-94
2022/11/05 09:01:54;;;;;;;20.80;6.50;;;16.10;99.90;;;;;;5025347;28;20037;-93
2022/11/05 09:04:24;;;;;;;20.55;7.40;;;16.10;99.90;;;;;;5047521;28;20077;-93
2022/11/05 09:07:12;;;;;;;22.42;5.78;;;16.20;99.90;;;;;;5048859;28;20060;-93
2022/11/05 09:09:52;;;;;;;26.00;6.18;;;16.20;99.90;;;;;;5019061;28;20093;-93
2022/11/05 09:12:19;;;;;;;21.05;7.05;;;16.20;99.90;;;;;;4996711;28;20034;-93
2022/11/05 09:14:46;;;;;;;22.80;5.97;;;16.30;99.90;;;;;;4974653;28;20118;-93
2022/11/05 09:17:23;;;;;;;21.52;5.45;;;16.40;99.90;;;;;;4976829;28;20181;-92
2022/11/05 09:27:16;;;;;;;19.10;5.45;;;16.60;99.90;;;;;;5035424;28;20056;-94
2022/11/05 09:31:02;;;;;;;26.15;5.97;;;16.50;99.90;;;;;;5029352;28;20021;-94
2022/11/05 09:33:40;;;;;;;24.45;5.60;;;16.50;99.90;;;;;;5194600;23;20537;-93
2022/11/05 09:39:31;;;;;;;26.88;7.20;;;16.40;99.90;;;;;;5024048;28;20038;-94
2022/11/05 09:47:59;;;;;;;22.33;10.45;;;16.20;99.90;;;;;;5067164;28;20554;-93
2022/11/05 09:50:46;;;;;;;21.67;10.18;;;16.10;99.90;;;;;;5050808;28;20045;-92
2022/11/05 09:53:28;;;;;;;22.95;9.85;;;16.10;99.90;;;;;;5033127;28;20060;-93
2022/11/05 09:56:02;;;;;;;28.55;9.43;;;16.20;99.90;;;;;;5048428;28;20025;-92
2022/11/05 09:58:52;;;;;;;23.67;9.68;;;16.30;99.90;;;;;;5045130;28;20037;-92
2022/11/05 10:01:55;;;;;;;26.45;8.90;;;16.30;99.90;;;;;;5044048;28;20033;-93
2022/11/05 10:05:29;;;;;;;;;;;;;;;;;;;;;
2022/11/05 10:11:14;;;;;;;28.58;7.88;;;16.50;99.90;;;;;;5019619;28;20112;-93
2022/11/05 10:13:47;;;;;;;28.67;8.80;;;16.50;99.90;;;;;;5016749;28;20475;-92
2022/11/05 10:16:34;;;;;;;21.48;8.73;;;16.50;99.90;;;;;;4999944;28;20124;-92
2022/11/05 10:19:12;;;;;;;27.45;11.45;;;16.40;99.90;;;;;;5016937;28;20033;-93
2022/11/05 10:21:39;;;;;;;29.33;10.77;;;16.40;99.90;;;;;;4999046;28;20049;-93
2022/11/05 10:24:18;;;;;;;27.92;10.15;;;16.40;99.90;;;;;;4998113;28;20037;-92
2022/11/05 10:26:49;;;;;;;31.50;9.50;;;16.50;99.90;;;;;;4999282;28;20046;-93
2022/11/05 10:29:29;;;;;;;32.72;10.48;;;16.50;99.90;;;;;;5016466;28;20069;-92
2022/11/05 10:31:58;;;;;;;41.40;10.70;;;16.60;99.90;;;;;;5003988;28;20052;-93
2022/11/05 10:34:31;;;;;;;41.10;10.35;;;16.70;99.90;;;;;;5001964;28;20026;-93
2022/11/05 10:39:34;;;;;;;47.85;11.93;;;16.80;99.90;;;;;;5041468;28;20054;-91
2022/11/05 10:42:49;;;;;;;31.70;10.75;;;16.80;99.90;;;;;;5040896;28;20010;-93
2022/11/05 10:45:39;;;;;;;42.40;11.40;;;16.80;99.90;;;;;;5031490;28;20036;-92
2022/11/05 10:48:32;;;;;;;35.00;9.77;;;16.80;99.90;;;;;;5027109;28;20311;-93
2022/11/05 10:54:54;;;;;;;41.45;10.30;;;16.90;99.90;;;;;;4994855;28;20044;-94
2022/11/05 10:57:32;;;;;;;50.93;11.27;;;17.00;99.90;;;;;;5019091;28;20040;-93
2022/11/05 11:00:20;;;;;;;50.97;10.48;;;17.10;99.90;;;;;;5003109;28;20033;-92
2022/11/05 11:02:59;;;;;;;56.58;10.48;;;17.00;99.90;;;;;;5018369;28;20068;-93
2022/11/05 11:05:26;;;;;;;44.08;9.10;;;17.10;99.90;;;;;;5018943;28;20033;-93
2022/11/05 11:08:02;;;;;;;47.38;8.95;;;17.10;99.90;;;;;;5006609;28;20033;-93
2022/11/05 11:10:50;;;;;;;38.60;9.32;;;17.10;99.90;;;;;;5009706;28;20037;-92
2022/11/05 11:13:46;;;;;;;44.78;9.20;;;17.10;99.90;;;;;;5002042;28;20057;-92
2022/11/05 11:16:37;;;;;;;41.40;9.65;;;17.10;99.90;;;;;;4986574;28;20025;-93
2022/11/05 11:19:20;;;;;;;42.08;9.25;;;17.00;99.90;;;;;;5018668;28;20061;-93
2022/11/05 11:22:17;;;;;;;40.92;9.00;;;17.00;99.90;;;;;;5030969;28;20057;-92
2022/11/05 11:24:53;;;;;;;27.35;7.95;;;16.90;99.90;;;;;;4974487;28;20043;-91
2022/11/05 11:27:33;;;;;;;22.77;7.72;;;16.80;99.90;;;;;;4993416;28;20080;-93
2022/11/05 11:30:05;;;;;;;37.65;8.82;;;16.70;99.90;;;;;;4993407;28;20042;-93
2022/11/05 11:32:45;;;;;;;27.00;7.57;;;16.80;99.90;;;;;;4937894;29;20051;-92
2022/11/05 11:35:49;;;;;;;23.17;6.25;;;16.70;99.90;;;;;;4903231;29;20043;-94
2022/11/05 11:38:23;;;;;;;18.38;6.05;;;16.60;99.90;;;;;;4916517;29;20113;-92
2022/11/05 11:40:58;;;;;;;16.98;5.93;;;16.60;99.90;;;;;;4903320;29;20522;-91
2022/11/05 11:43:36;;;;;;;23.42;5.85;;;16.50;99.90;;;;;;4901892;29;20060;-92
2022/11/05 11:46:06;;;;;;;20.50;6.60;;;16.40;99.90;;;;;;4901586;29;20060;-92
2022/11/05 11:48:35;;;;;;;22.88;6.00;;;16.30;99.90;;;;;;4901133;29;20135;-93
2022/11/05 11:51:39;;;;;;;16.23;5.07;;;16.40;99.90;;;;;;4893805;29;20124;-94
2022/11/05 11:54:20;;;;;;;12.45;4.72;;;16.20;99.90;;;;;;4886014;29;20049;-92
2022/11/05 11:56:51;;;;;;;11.63;4.60;;;16.00;99.90;;;;;;4915295;29;20032;-93
2022/11/05 11:59:41;;;;;;;6.65;4.57;;;15.70;99.90;;;;;;4904041;29;20121;-93
2022/11/05 12:02:25;;;;;;;5.97;3.80;;;15.40;99.90;;;;;;4947413;29;20054;-93
2022/11/05 12:05:07;;;;;;;8.68;4.22;;;15.30;99.90;;;;;;4958937;29;20184;-93
2022/11/05 12:07:46;;;;;;;6.47;4.40;;;15.10;99.90;;;;;;4951739;29;20054;-92
2022/11/05 12:10:37;;;;;;;9.88;5.97;;;15.00;99.90;;;;;;4958279;28;20047;-93
2022/11/05 12:13:44;;;;;;;6.47;4.78;;;14.90;99.90;;;;;;4984192;28;20034;-92
2022/11/05 12:16:38;;;;;;;11.00;4.57;;;14.90;99.90;;;;;;4969593;28;20051;-92
2022/11/05 12:19:53;;;;;;;5.68;4.78;;;14.80;99.90;;;;;;4986158;28;20102;-92
2022/11/05 12:22:35;;;;;;;6.55;4.30;;;14.70;99.90;;;;;;4954293;29;20040;-93
2022/11/05 12:25:42;;;;;;;10.80;5.10;;;14.80;99.90;;;;;;4950526;29;20055;-93
2022/11/05 12:28:29;;;;;;;8.70;5.32;;;14.70;99.90;;;;;;4912666;29;20141;-93
2022/11/05 12:31:27;;;;;;;8.93;5.10;;;14.80;99.90;;;;;;4896697;29;20040;-93
2022/11/05 12:34:21;;;;;;;11.48;5.15;;;14.90;99.90;;;;;;4877895;29;20045;-93
2022/11/05 12:37:24;;;;;;;12.55;5.68;;;14.90;99.90;;;;;;4873139;29;20129;-94
2022/11/05 12:40:10;;;;;;;10.73;5.78;;;15.00;99.90;;;;;;4886375;29;20463;-93
2022/11/05 12:43:19;;;;;;;7.70;4.75;;;15.10;99.90;;;;;;4873433;29;20044;-93
2022/11/05 12:46:23;;;;;;;11.77;5.20;;;15.10;99.90;;;;;;4879240;29;20107;-93
2022/11/05 12:49:03;;;;;;;12.02;6.65;;;15.20;99.90;;;;;;4894497;29;20052;-93
2022/11/05 12:52:50;;;;;;;;;;;;;;;;;;;;;
2022/11/05 12:58:43;;;;;;;14.15;6.82;;;15.30;99.90;;;;;;5024018;28;20076;-94
2022/11/05 13:01:34;;;;;;;13.98;6.25;;;15.40;99.90;;;;;;5006383;28;20061;-94
2022/11/05 13:04:37;;;;;;;14.95;6.93;;;15.40;99.90;;;;;;5024386;28;20050;-92
2022/11/05 13:07:09;;;;;;;13.30;7.05;;;15.50;99.90;;;;;;5008349;28;20026;-94
2022/11/05 13:10:05;;;;;;;13.70;6.38;;;15.50;99.90;;;;;;5010750;28;20033;-93
2022/11/05 13:13:22;;;;;;;17.80;8.63;;;15.60;99.90;;;;;;5008748;28;20028;-93
2022/11/05 13:16:43;;;;;;;15.07;7.93;;;15.70;99.90;;;;;;4976609;28;20070;-92
2022/11/05 13:26:38;;;;;;;18.30;6.22;;;16.00;99.90;;;;;;5111691;22;20073;-94
2022/11/05 13:29:21;;;;;;;19.10;5.75;;;16.00;99.90;;;;;;5030307;28;20053;-93
2022/11/05 13:32:10;;;;;;;18.13;6.50;;;16.10;99.90;;;;;;5029948;28;20036;-94
2022/11/05 13:34:40;;;;;;;21.05;6.90;;;16.10;99.90;;;;;;5029709;28;20032;-92
2022/11/05 13:39:59;;;;;;;20.95;6.80;;;16.00;99.90;;;;;;5041659;28;20116;-93
2022/11/05 13:42:54;;;;;;;19.08;6.75;;;16.00;99.90;;;;;;5023845;28;20032;-94
2022/11/05 13:45:56;;;;;;;24.80;8.38;;;15.90;99.90;;;;;;5028215;28;20044;-94
2022/11/05 13:48:46;;;;;;;22.33;8.23;;;15.90;99.90;;;;;;5044630;28;20037;-93
2022/11/05 13:51:39;;;;;;;19.88;8.18;;;16.00;99.90;;;;;;5027665;28;20021;-93
2022/11/05 13:54:50;;;;;;;14.43;5.85;;;16.00;99.90;;;;;;5048550;28;20045;-92
2022/11/05 13:57:50;;;;;;;21.00;6.00;;;16.00;99.90;;;;;;5030902;28;20536;-91
2022/11/05 14:00:56;;;;;;;16.52;5.45;;;16.10;99.90;;;;;;5034791;28;20064;-92
2022/11/05 14:14:37;;;;;;;18.38;4.60;;;16.10;99.90;;;;;;5007977;28;20080;-95
2022/11/05 14:17:38;;;;;;;13.65;4.32;;;16.10;99.90;;;;;;4929352;29;20076;-94
2022/11/05 14:20:52;;;;;;;18.98;4.20;;;16.20;99.90;;;;;;4898625;29;20067;-93
2022/11/05 14:23:24;;;;;;;12.93;3.80;;;16.20;99.90;;;;;;4890672;29;20115;-93
2022/11/05 14:25:55;;;;;;;12.68;3.30;;;16.30;99.90;;;;;;4905168;29;20051;-93
2022/11/05 14:28:37;;;;;;;13.93;3.67;;;16.30;99.90;;;;;;4890905;29;20056;-92
2022/11/05 14:31:25;;;;;;;13.73;3.67;;;16.30;99.90;;;;;;4908792;29;20032;-93
2022/11/05 14:34:16;;;;;;;15.82;3.47;;;16.40;99.90;;;;;;4914293;29;20047;-94
2022/11/05 14:41:20;;;;;;;12.25;3.10;;;16.50;99.90;;;;;;4893756;29;20048;-94
2022/11/05 15:00:43;;;;;;;11.98;4.60;;;16.70;99.90;;;;;;5156962;22;20053;-93
2022/11/05 15:13:39;;;;;;;17.05;4.80;;;16.40;99.90;;;;;;5025846;28;20062;-93
2022/11/05 15:16:06;;;;;;;11.73;4.45;;;16.20;99.90;;;;;;5025193;28;20022;-93
2022/11/05 15:18:46;;;;;;;12.63;4.30;;;16.20;99.90;;;;;;5019763;28;20033;-94
2022/11/05 15:21:17;;;;;;;13.07;3.83;;;16.10;99.90;;;;;;5022790;28;20026;-93
2022/11/05 15:24:00;;;;;;;11.98;3.90;;;16.10;99.90;;;;;;5007114;28;20045;-93
2022/11/05 15:26:46;;;;;;;7.35;3.17;;;16.00;99.90;;;;;;5022467;28;20030;-93
2022/11/05 15:29:23;;;;;;;10.27;3.80;;;16.00;99.90;;;;;;5022632;28;20101;-94
2022/11/05 15:31:52;;;;;;;11.25;3.30;;;15.90;99.90;;;;;;5021660;28;20034;-93
2022/11/05 15:34:29;;;;;;;13.10;3.47;;;15.90;99.90;;;;;;5006250;28;20022;-94
2022/11/05 15:37:21;;;;;;;11.77;3.85;;;15.80;99.90;;;;;;5024272;28;20034;-94
2022/11/05 15:39:55;;;;;;;8.38;5.03;;;15.70;99.90;;;;;;5005542;28;20037;-93
2022/11/05 15:42:26;;;;;;;12.77;4.83;;;15.70;99.90;;;;;;5007630;28;20034;-92
2022/11/05 15:45:03;;;;;;;13.02;5.35;;;15.70;99.90;;;;;;5021429;28;20033;-93
2022/11/05 15:47:45;;;;;;;15.60;5.05;;;15.70;99.90;;;;;;5020527;28;20510;-95
2022/11/05 15:50:16;;;;;;;17.30;5.68;;;15.70;99.90;;;;;;5020665;28;20037;-93
2022/11/05 15:52:52;;;;;;;16.88;5.55;;;15.70;99.90;;;;;;5006667;28;20034;-94
2022/11/05 15:55:28;;;;;;;13.18;4.80;;;15.70;99.90;;;;;;5007416;28;20022;-93
2022/11/05 15:58:15;;;;;;;17.30;7.03;;;15.70;99.90;;;;;;5047780;23;20057;-94
2022/11/05 16:05:14;;;;;;;17.88;6.90;;;15.70;99.90;;;;;;5049048;23;20079;-93
2022/11/05 16:07:46;;;;;;;24.23;9.63;;;15.70;99.90;;;;;;5011939;23;20049;-93
2022/11/05 16:10:45;;;;;;;27.35;10.85;;;15.70;99.90;;;;;;5041804;28;20111;-94
2022/11/05 16:13:40;;;;;;;18.25;9.95;;;15.70;99.90;;;;;;5014202;28;20045;-94
2022/11/05 16:16:33;;;;;;;21.13;8.30;;;15.80;99.90;;;;;;5022902;28;20044;-93
2022/11/05 16:26:28;;;;;;;19.98;7.75;;;15.80;99.90;;;;;;5020399;28;20471;-94
2022/11/05 16:32:33;;;;;;;;;;;;;;;;;;;;;
2022/11/05 16:35:57;;;;;;;44.05;16.30;;;15.80;99.90;;;;;;5024017;28;20473;-94
2022/11/05 16:45:47;;;;;;;19.00;5.82;;;15.70;99.90;;;;;;5037517;28;20046;-94
2022/11/05 16:48:17;;;;;;;14.00;6.32;;;15.70;99.90;;;;;;4929958;29;20552;-94
2022/11/05 16:50:45;;;;;;;13.70;5.72;;;15.70;99.90;;;;;;4909590;29;20044;-93
2022/11/05 16:53:13;;;;;;;14.15;4.97;;;15.70;99.90;;;;;;4908388;29;20103;-93
2022/11/05 16:55:42;;;;;;;13.90;5.05;;;15.70;99.90;;;;;;4910338;29;20470;-94
2022/11/05 16:58:20;;;;;;;14.30;5.05;;;15.70;99.90;;;;;;4926807;29;20040;-93
2022/11/05 17:01:06;;;;;;;8.10;4.88;;;15.70;99.90;;;;;;4934603;29;20034;-94
2022/11/05 17:03:33;;;;;;;17.25;7.25;;;15.70;99.90;;;;;;4907737;29;20153;-94
2022/11/05 17:06:00;;;;;;;19.52;9.27;;;15.70;99.90;;;;;;4901573;29;20029;-94
2022/11/05 17:08:28;;;;;;;18.35;10.20;;;15.70;99.90;;;;;;4884565;29;20395;-93
2022/11/05 17:10:55;;;;;;;18.85;10.18;;;15.70;99.90;;;;;;4916831;29;20033;-93
2022/11/05 17:13:21;;;;;;;13.90;7.50;;;15.70;99.90;;;;;;4916122;29;20049;-94
2022/11/05 17:15:50;;;;;;;16.77;8.80;;;15.60;99.90;;;;;;4884716;29;20036;-92
2022/11/05 17:18:18;;;;;;;10.45;7.60;;;15.60;99.90;;;;;;4884775;29;20177;-93
2022/11/05 17:20:56;;;;;;;14.88;8.55;;;15.60;99.90;;;;;;4884434;29;20123;-94
2022/11/05 17:23:27;;;;;;;15.00;8.10;;;15.60;99.90;;;;;;4881745;29;20045;-94
2022/11/05 17:26:00;;;;;;;18.42;7.47;;;15.60;99.90;;;;;;4943175;29;20043;-94
2022/11/05 17:28:28;;;;;;;10.75;6.80;;;15.60;99.90;;;;;;4941647;29;20166;-94
2022/11/05 17:30:59;;;;;;;14.77;6.97;;;15.60;99.90;;;;;;4918223;29;20029;-93
2022/11/05 17:33:26;;;;;;;13.25;6.82;;;15.60;99.90;;;;;;4907369;29;20040;-93
2022/11/05 17:35:53;;;;;;;14.95;7.90;;;15.50;99.90;;;;;;4922305;28;20279;-92
2022/11/05 17:38:22;;;;;;;20.30;9.55;;;15.50;99.90;;;;;;4963132;28;20050;-92
2022/11/05 17:40:50;;;;;;;14.70;8.93;;;15.60;99.90;;;;;;4963100;28;20049;-94
2022/11/05 17:43:17;;;;;;;16.55;7.85;;;15.50;99.90;;;;;;4963508;28;20074;-93
2022/11/05 17:45:50;;;;;;;19.20;7.60;;;15.50;99.90;;;;;;4963502;28;20042;-93
2022/11/05 17:48:19;;;;;;;17.33;8.60;;;15.60;99.90;;;;;;4962664;28;20073;-93
2022/11/05 17:50:49;;;;;;;18.63;10.07;;;15.50;99.90;;;;;;4958416;28;20058;-93
2022/11/05 17:53:18;;;;;;;15.18;8.70;;;15.50;99.90;;;;;;4960184;28;20436;-94
2022/11/05 17:55:46;;;;;;;8.98;6.43;;;15.50;99.90;;;;;;4963206;28;20041;-93
2022/11/05 17:58:13;;;;;;;12.13;5.60;;;15.40;99.90;;;;;;4963449;28;20070;-94
2022/11/05 18:00:46;;;;;;;14.38;5.45;;;15.40;99.90;;;;;;4963644;28;20033;-93
2022/11/05 18:03:14;;;;;;;9.52;5.47;;;15.40;99.90;;;;;;4980887;28;20034;-94
2022/11/05 18:05:42;;;;;;;10.07;5.15;;;15.40;99.90;;;;;;4964580;28;20169;-94
2022/11/05 18:08:09;;;;;;;10.88;5.80;;;15.40;99.90;;;;;;4980944;28;20121;-93
2022/11/05 18:10:38;;;;;;;12.25;6.25;;;15.40;99.90;;;;;;4979105;28;20023;-92
2022/11/05 18:13:05;;;;;;;24.13;8.00;;;15.30;99.90;;;;;;4980016;28;20129;-92
2022/11/05 18:15:32;;;;;;;15.18;7.00;;;15.30;99.90;;;;;;4978452;28;20105;-93
2022/11/05 18:17:59;;;;;;;9.65;6.05;;;15.30;99.90;;;;;;4994699;28;20119;-93
2022/11/05 18:20:27;;;;;;;11.73;6.45;;;15.20;99.90;;;;;;4963563;28;20042;-92
2022/11/05 18:22:55;;;;;;;7.20;4.97;;;15.10;99.90;;;;;;4995254;28;20113;-94
2022/11/05 18:25:32;;;;;;;11.30;5.53;;;15.10;99.90;;;;;;5002873;28;20023;-93
2022/11/05 18:32:52;;;;;;;10.50;4.40;;;15.10;99.90;;;;;;4914830;29;20063;-94
2022/11/05 18:39:33;;;;;;;10.20;4.20;;;15.10;99.90;;;;;;5882750;23;20041;-93
2022/11/05 18:44:55;;;;;;;9.85;4.68;;;15.00;99.90;;;;;;5009638;28;20050;-93
2022/11/05 18:47:33;;;;;;;7.30;4.18;;;15.00;99.90;;;;;;4976949;28;20094;-94
2022/11/05 18:50:06;;;;;;;9.27;5.05;;;15.00;99.90;;;;;;4926507;28;20066;-93
2022/11/05 18:52:33;;;;;;;6.93;4.20;;;15.00;99.90;;;;;;4932132;29;20016;-92
2022/11/05 18:55:01;;;;;;;14.00;6.28;;;15.00;99.90;;;;;;4927844;29;20387;-92
2022/11/05 19:22:21;;;;;;;9.10;5.20;;;14.60;99.90;;;;;;4959703;28;20107;-94
2022/11/05 19:24:51;;;;;;;9.50;5.55;;;14.60;99.90;;;;;;4930547;29;20096;-93
2022/11/05 19:27:48;;;;;;;7.57;5.32;;;14.60;99.90;;;;;;4961777;28;20027;-93
2022/11/05 19:30:54;;;;;;;;;;;;;;;;;;;;;
2022/11/05 19:34:20;;;;;;;8.88;5.15;;;14.60;99.90;;;;;;4948058;29;20198;-94
2022/11/05 19:36:52;;;;;;;12.50;6.38;;;14.50;99.90;;;;;;4925239;29;20069;-93
2022/11/05 19:39:28;;;;;;;10.93;6.60;;;14.60;99.90;;;;;;5008643;23;20075;-93
2022/11/05 19:42:37;;;;;;;14.38;5.90;;;14.50;99.90;;;;;;4981125;28;20624;-93
2022/11/05 21:02:49;;;;;;;13.85;6.40;;;14.00;99.90;;;;;;5907626;22;20042;31
2022/11/05 21:09:46;;;;;;;12.07;6.35;;;13.90;99.90;;;;;;4971319;29;20051;-94
2022/11/05 21:13:19;;;;;;;;;;;;;;;;;;;;;
2022/11/05 21:17:10;;;;;;;;;;;;;;;;;;;;;
